sensor_id;sensor_type;location;lat;lon;timestamp;temperature;humidity
33815;DHT22;20121;51.910;8.406;2022-12-05T00:01:34;2.20;99.90
33815;DHT22;20121;51.910;8.406;2022-12-05T00:04:04;2.20;99.90
33815;DHT22;20121;51.910;8.406;2022-12-05T00:06:30;2.20;99.90
33815;DHT22;20121;51.910;8.406;2022-12-05T00:08:57;2.20;99.90
33815;DHT22;20121;51.910;8.406;2022-12-05T00:11:26;2.20;99.90
33815;DHT22;20121;51.910;8.406;2022-12-05T00:13:54;2.20;99.90
33815;DHT22;20121;51.910;8.406;2022-12-05T00:16:21;2.20;99.90
33815;DHT22;20121;51.910;8.406;2022-12-05T00:18:47;2.20;99.90
33815;DHT22;20121;51.910;8.406;2022-12-05T00:21:33;2.20;99.90
33815;DHT22;20121;51.910;8.406;2022-12-05T00:24:00;2.20;99.90
33815;DHT22;20121;51.910;8.406;2022-12-05T00:26:26;2.20;99.90
33815;DHT22;20121;51.910;8.406;2022-12-05T00:28:52;2.20;99.90
33815;DHT22;20121;51.910;8.406;2022-12-05T00:31:20;2.20;99.90
33815;DHT22;20121;51.910;8.406;2022-12-05T00:33:47;2.20;99.90
33815;DHT22;20121;51.910;8.406;2022-12-05T00:36:16;2.60;99.90
33815;DHT22;20121;51.910;8.406;2022-12-05T00:38:41;2.30;99.90
33815;DHT22;20121;51.910;8.406;2022-12-05T00:41:10;2.30;99.90
33815;DHT22;20121;51.910;8.406;2022-12-05T00:43:37;2.30;99.90
33815;DHT22;20121;51.910;8.406;2022-12-05T00:46:08;2.20;99.90
33815;DHT22;20121;51.910;8.406;2022-12-05T00:48:35;2.20;99.90
33815;DHT22;20121;51.910;8.406;2022-12-05T00:53:29;2.30;99.90
33815;DHT22;20121;51.910;8.406;2022-12-05T00:55:55;2.30;99.90
33815;DHT22;20121;51.910;8.406;2022-12-05T00:58:21;2.30;99.90
33815;DHT22;20121;51.910;8.406;2022-12-05T01:00:46;2.30;99.90
33815;DHT22;20121;51.910;8.406;2022-12-05T01:03:12;2.30;99.90
33815;DHT22;20121;51.910;8.406;2022-12-05T01:05:38;2.30;99.90
33815;DHT22;20121;51.910;8.406;2022-12-05T01:08:03;2.30;99.90
33815;DHT22;20121;51.910;8.406;2022-12-05T01:10:29;2.30;99.90
33815;DHT22;20121;51.910;8.406;2022-12-05T01:12:55;2.30;99.90
33815;DHT22;20121;51.910;8.406;2022-12-05T01:15:20;2.30;99.90
33815;DHT22;20121;51.910;8.406;2022-12-05T01:17:46;2.30;99.90
33815;DHT22;20121;51.910;8.406;2022-12-05T01:20:11;2.30;99.90
33815;DHT22;20121;51.910;8.406;2022-12-05T01:22:37;2.30;99.90
33815;DHT22;20121;51.910;8.406;2022-12-05T01:25:03;2.30;99.90
33815;DHT22;20121;51.910;8.406;2022-12-05T01:27:29;2.30;99.90
33815;DHT22;20121;51.910;8.406;2022-12-05T01:29:56;2.20;99.90
33815;DHT22;20121;51.910;8.406;2022-12-05T01:32:21;2.30;99.90
33815;DHT22;20121;51.910;8.406;2022-12-05T01:34:47;2.30;99.90
33815;DHT22;20121;51.910;8.406;2022-12-05T01:37:12;1.80;99.90
33815;DHT22;20121;51.910;8.406;2022-12-05T01:39:38;2.30;99.90
33815;DHT22;20121;51.910;8.406;2022-12-05T01:42:04;2.30;99.90
33815;DHT22;20121;51.910;8.406;2022-12-05T01:46:55;2.30;99.90
33815;DHT22;20121;51.910;8.406;2022-12-05T01:52:09;2.30;99.90
33815;DHT22;20121;51.910;8.406;2022-12-05T01:54:37;2.30;99.90
33815;DHT22;20121;51.910;8.406;2022-12-05T01:57:07;2.30;99.90
33815;DHT22;20121;51.910;8.406;2022-12-05T01:59:37;2.40;99.90
33815;DHT22;20121;51.910;8.406;2022-12-05T02:02:04;2.30;99.90
33815;DHT22;20121;51.910;8.406;2022-12-05T02:04:30;2.30;99.90
33815;DHT22;20121;51.910;8.406;2022-12-05T02:06:56;2.30;99.90
33815;DHT22;20121;51.910;8.406;2022-12-05T02:09:22;2.30;99.90
33815;DHT22;20121;51.910;8.406;2022-12-05T02:12:06;2.40;99.90
33815;DHT22;20121;51.910;8.406;2022-12-05T02:17:41;2.40;99.90
33815;DHT22;20121;51.910;8.406;2022-12-05T02:20:15;2.40;99.90
33815;DHT22;20121;51.910;8.406;2022-12-05T02:22:54;2.40;99.90
33815;DHT22;20121;51.910;8.406;2022-12-05T02:31:31;2.40;99.90
33815;DHT22;20121;51.910;8.406;2022-12-05T02:36:44;2.40;99.90
33815;DHT22;20121;51.910;8.406;2022-12-05T02:39:20;2.40;99.90
33815;DHT22;20121;51.910;8.406;2022-12-05T02:42:17;2.30;99.90
33815;DHT22;20121;51.910;8.406;2022-12-05T02:44:49;2.40;99.90
33815;DHT22;20121;51.910;8.406;2022-12-05T02:47:18;2.30;99.90
33815;DHT22;20121;51.910;8.406;2022-12-05T02:49:46;2.00;99.90
33815;DHT22;20121;51.910;8.406;2022-12-05T02:52:15;2.40;99.90
33815;DHT22;20121;51.910;8.406;2022-12-05T02:54:43;2.30;99.90
33815;DHT22;20121;51.910;8.406;2022-12-05T02:57:11;2.40;99.90
33815;DHT22;20121;51.910;8.406;2022-12-05T02:59:37;2.40;99.90
33815;DHT22;20121;51.910;8.406;2022-12-05T03:02:03;2.40;99.90
33815;DHT22;20121;51.910;8.406;2022-12-05T03:04:30;2.40;99.90
33815;DHT22;20121;51.910;8.406;2022-12-05T03:07:03;2.40;99.90
33815;DHT22;20121;51.910;8.406;2022-12-05T03:09:45;2.40;99.90
33815;DHT22;20121;51.910;8.406;2022-12-05T03:12:22;2.40;99.90
33815;DHT22;20121;51.910;8.406;2022-12-05T03:14:55;2.40;99.90
33815;DHT22;20121;51.910;8.406;2022-12-05T03:17:24;2.40;99.90
33815;DHT22;20121;51.910;8.406;2022-12-05T03:20:04;2.40;99.90
33815;DHT22;20121;51.910;8.406;2022-12-05T03:25:02;2.30;99.90
33815;DHT22;20121;51.910;8.406;2022-12-05T03:27:51;2.40;99.90
33815;DHT22;20121;51.910;8.406;2022-12-05T03:30:20;2.30;99.90
33815;DHT22;20121;51.910;8.406;2022-12-05T03:33:26;2.40;99.90
33815;DHT22;20121;51.910;8.406;2022-12-05T03:35:50;2.40;99.90
33815;DHT22;20121;51.910;8.406;2022-12-05T03:38:29;2.40;99.90
33815;DHT22;20121;51.910;8.406;2022-12-05T03:41:17;2.50;99.90
33815;DHT22;20121;51.910;8.406;2022-12-05T03:43:51;2.30;99.90
33815;DHT22;20121;51.910;8.406;2022-12-05T03:46:33;2.30;99.90
33815;DHT22;20121;51.910;8.406;2022-12-05T03:51:54;2.30;99.90
33815;DHT22;20121;51.910;8.406;2022-12-05T03:54:33;2.30;99.90
33815;DHT22;20121;51.910;8.406;2022-12-05T03:59:48;2.30;99.90
33815;DHT22;20121;51.910;8.406;2022-12-05T04:07:42;2.30;99.90
33815;DHT22;20121;51.910;8.406;2022-12-05T04:10:17;2.30;99.90
33815;DHT22;20121;51.910;8.406;2022-12-05T04:12:45;2.30;99.90
33815;DHT22;20121;51.910;8.406;2022-12-05T04:15:16;2.30;99.90
33815;DHT22;20121;51.910;8.406;2022-12-05T04:20:34;2.30;99.90
33815;DHT22;20121;51.910;8.406;2022-12-05T04:23:20;2.30;99.90
33815;DHT22;20121;51.910;8.406;2022-12-05T04:26:01;2.30;99.90
33815;DHT22;20121;51.910;8.406;2022-12-05T04:28:56;2.30;99.90
33815;DHT22;20121;51.910;8.406;2022-12-05T04:31:32;2.30;99.90
33815;DHT22;20121;51.910;8.406;2022-12-05T04:34:04;2.30;99.90
33815;DHT22;20121;51.910;8.406;2022-12-05T04:39:05;2.30;99.90
33815;DHT22;20121;51.910;8.406;2022-12-05T04:41:38;2.30;99.90
33815;DHT22;20121;51.910;8.406;2022-12-05T04:44:07;2.30;99.90
33815;DHT22;20121;51.910;8.406;2022-12-05T04:46:34;2.40;99.90
33815;DHT22;20121;51.910;8.406;2022-12-05T04:49:03;2.40;99.90
33815;DHT22;20121;51.910;8.406;2022-12-05T04:51:33;2.40;99.90
33815;DHT22;20121;51.910;8.406;2022-12-05T04:54:13;2.40;99.90
33815;DHT22;20121;51.910;8.406;2022-12-05T04:56:40;2.40;99.90
33815;DHT22;20121;51.910;8.406;2022-12-05T04:59:07;2.30;99.90
33815;DHT22;20121;51.910;8.406;2022-12-05T05:01:54;2.40;99.90
33815;DHT22;20121;51.910;8.406;2022-12-05T05:04:31;2.40;99.90
33815;DHT22;20121;51.910;8.406;2022-12-05T05:06:58;2.30;99.90
33815;DHT22;20121;51.910;8.406;2022-12-05T05:09:24;2.40;99.90
33815;DHT22;20121;51.910;8.406;2022-12-05T05:11:50;2.40;99.90
33815;DHT22;20121;51.910;8.406;2022-12-05T05:14:16;2.40;99.90
33815;DHT22;20121;51.910;8.406;2022-12-05T05:16:42;2.40;99.90
33815;DHT22;20121;51.910;8.406;2022-12-05T05:19:09;2.40;99.90
33815;DHT22;20121;51.910;8.406;2022-12-05T05:21:40;2.40;99.90
33815;DHT22;20121;51.910;8.406;2022-12-05T05:24:07;2.40;99.90
33815;DHT22;20121;51.910;8.406;2022-12-05T05:26:35;2.40;99.90
33815;DHT22;20121;51.910;8.406;2022-12-05T05:29:02;2.40;99.90
33815;DHT22;20121;51.910;8.406;2022-12-05T05:31:27;2.40;99.90
33815;DHT22;20121;51.910;8.406;2022-12-05T05:33:54;2.40;99.90
33815;DHT22;20121;51.910;8.406;2022-12-05T05:36:21;2.10;99.90
33815;DHT22;20121;51.910;8.406;2022-12-05T05:38:49;2.40;99.90
33815;DHT22;20121;51.910;8.406;2022-12-05T05:41:18;1.60;99.90
33815;DHT22;20121;51.910;8.406;2022-12-05T05:43:44;2.40;99.90
33815;DHT22;20121;51.910;8.406;2022-12-05T05:46:11;2.40;99.90
33815;DHT22;20121;51.910;8.406;2022-12-05T05:48:37;2.50;99.90
33815;DHT22;20121;51.910;8.406;2022-12-05T05:51:03;2.60;99.90
33815;DHT22;20121;51.910;8.406;2022-12-05T05:53:30;2.50;99.90
33815;DHT22;20121;51.910;8.406;2022-12-05T05:55:56;2.50;99.90
33815;DHT22;20121;51.910;8.406;2022-12-05T05:58:21;2.50;99.90
33815;DHT22;20121;51.910;8.406;2022-12-05T06:00:47;2.50;99.90
33815;DHT22;20121;51.910;8.406;2022-12-05T06:03:13;2.50;99.90
33815;DHT22;20121;51.910;8.406;2022-12-05T06:05:38;2.50;99.90
33815;DHT22;20121;51.910;8.406;2022-12-05T06:08:04;2.50;99.90
33815;DHT22;20121;51.910;8.406;2022-12-05T06:10:30;2.50;99.90
33815;DHT22;20121;51.910;8.406;2022-12-05T06:12:57;2.60;99.90
33815;DHT22;20121;51.910;8.406;2022-12-05T06:15:23;2.50;99.90
33815;DHT22;20121;51.910;8.406;2022-12-05T06:17:49;2.50;99.90
33815;DHT22;20121;51.910;8.406;2022-12-05T06:20:14;2.50;99.90
33815;DHT22;20121;51.910;8.406;2022-12-05T06:22:40;2.50;99.90
33815;DHT22;20121;51.910;8.406;2022-12-05T06:25:06;2.50;99.90
33815;DHT22;20121;51.910;8.406;2022-12-05T06:27:32;2.50;99.90
33815;DHT22;20121;51.910;8.406;2022-12-05T06:29:58;2.50;99.90
33815;DHT22;20121;51.910;8.406;2022-12-05T06:32:24;2.70;99.90
33815;DHT22;20121;51.910;8.406;2022-12-05T06:34:50;2.50;99.90
33815;DHT22;20121;51.910;8.406;2022-12-05T06:37:15;2.50;99.90
33815;DHT22;20121;51.910;8.406;2022-12-05T06:39:41;2.50;99.90
33815;DHT22;20121;51.910;8.406;2022-12-05T06:42:07;2.50;99.90
33815;DHT22;20121;51.910;8.406;2022-12-05T06:44:32;2.50;99.90
33815;DHT22;20121;51.910;8.406;2022-12-05T06:46:58;2.50;99.90
33815;DHT22;20121;51.910;8.406;2022-12-05T06:49:24;2.50;99.90
33815;DHT22;20121;51.910;8.406;2022-12-05T06:51:54;2.50;99.90
33815;DHT22;20121;51.910;8.406;2022-12-05T06:54:20;2.50;99.90
33815;DHT22;20121;51.910;8.406;2022-12-05T06:56:45;2.50;99.90
33815;DHT22;20121;51.910;8.406;2022-12-05T06:59:11;2.50;99.90
33815;DHT22;20121;51.910;8.406;2022-12-05T07:01:37;2.50;99.90
33815;DHT22;20121;51.910;8.406;2022-12-05T07:04:04;2.50;99.90
33815;DHT22;20121;51.910;8.406;2022-12-05T07:06:30;2.50;99.90
33815;DHT22;20121;51.910;8.406;2022-12-05T07:08:56;2.50;99.90
33815;DHT22;20121;51.910;8.406;2022-12-05T07:11:22;2.60;99.90
33815;DHT22;20121;51.910;8.406;2022-12-05T07:13:48;2.60;99.90
33815;DHT22;20121;51.910;8.406;2022-12-05T07:16:13;2.50;99.90
33815;DHT22;20121;51.910;8.406;2022-12-05T07:18:39;2.50;99.90
33815;DHT22;20121;51.910;8.406;2022-12-05T07:21:07;2.30;99.90
33815;DHT22;20121;51.910;8.406;2022-12-05T07:23:33;2.50;99.90
33815;DHT22;20121;51.910;8.406;2022-12-05T07:26:02;2.50;99.90
33815;DHT22;20121;51.910;8.406;2022-12-05T07:28:28;2.50;99.90
33815;DHT22;20121;51.910;8.406;2022-12-05T07:31:05;2.50;99.90
33815;DHT22;20121;51.910;8.406;2022-12-05T07:33:31;2.50;99.90
33815;DHT22;20121;51.910;8.406;2022-12-05T07:36:17;2.50;99.90
33815;DHT22;20121;51.910;8.406;2022-12-05T07:38:44;2.50;99.90
33815;DHT22;20121;51.910;8.406;2022-12-05T07:41:16;2.30;99.90
33815;DHT22;20121;51.910;8.406;2022-12-05T07:43:46;2.40;99.90
33815;DHT22;20121;51.910;8.406;2022-12-05T07:46:12;2.40;99.90
33815;DHT22;20121;51.910;8.406;2022-12-05T07:48:38;2.50;99.90
33815;DHT22;20121;51.910;8.406;2022-12-05T07:51:05;2.30;99.90
33815;DHT22;20121;51.910;8.406;2022-12-05T07:53:31;2.40;99.90
33815;DHT22;20121;51.910;8.406;2022-12-05T07:55:58;2.50;99.90
33815;DHT22;20121;51.910;8.406;2022-12-05T07:58:25;2.40;99.90
33815;DHT22;20121;51.910;8.406;2022-12-05T08:00:52;2.40;99.90
33815;DHT22;20121;51.910;8.406;2022-12-05T08:03:17;2.40;99.90
33815;DHT22;20121;51.910;8.406;2022-12-05T08:05:43;2.40;99.90
33815;DHT22;20121;51.910;8.406;2022-12-05T08:08:08;2.40;99.90
33815;DHT22;20121;51.910;8.406;2022-12-05T08:10:34;2.40;99.90
33815;DHT22;20121;51.910;8.406;2022-12-05T08:13:00;2.50;99.90
33815;DHT22;20121;51.910;8.406;2022-12-05T08:15:25;2.30;99.90
33815;DHT22;20121;51.910;8.406;2022-12-05T08:17:51;2.30;99.90
33815;DHT22;20121;51.910;8.406;2022-12-05T08:20:17;2.30;99.90
33815;DHT22;20121;51.910;8.406;2022-12-05T08:22:42;2.30;99.90
33815;DHT22;20121;51.910;8.406;2022-12-05T08:25:08;2.30;99.90
33815;DHT22;20121;51.910;8.406;2022-12-05T08:27:34;2.30;99.90
33815;DHT22;20121;51.910;8.406;2022-12-05T08:30:00;2.30;99.90
33815;DHT22;20121;51.910;8.406;2022-12-05T08:32:26;2.30;99.90
33815;DHT22;20121;51.910;8.406;2022-12-05T08:34:52;2.30;99.90
33815;DHT22;20121;51.910;8.406;2022-12-05T08:37:17;2.20;99.90
33815;DHT22;20121;51.910;8.406;2022-12-05T08:39:43;2.20;99.90
33815;DHT22;20121;51.910;8.406;2022-12-05T08:42:09;2.20;99.90
33815;DHT22;20121;51.910;8.406;2022-12-05T08:44:34;2.50;99.90
33815;DHT22;20121;51.910;8.406;2022-12-05T08:47:00;2.20;99.90
33815;DHT22;20121;51.910;8.406;2022-12-05T08:49:26;2.20;99.90
33815;DHT22;20121;51.910;8.406;2022-12-05T08:51:52;2.20;99.90
33815;DHT22;20121;51.910;8.406;2022-12-05T08:54:18;2.20;99.90
33815;DHT22;20121;51.910;8.406;2022-12-05T08:56:43;2.20;99.90
33815;DHT22;20121;51.910;8.406;2022-12-05T08:59:09;2.20;99.90
33815;DHT22;20121;51.910;8.406;2022-12-05T09:01:35;2.20;99.90
33815;DHT22;20121;51.910;8.406;2022-12-05T09:04:03;2.20;99.90
33815;DHT22;20121;51.910;8.406;2022-12-05T09:06:30;2.10;99.90
33815;DHT22;20121;51.910;8.406;2022-12-05T09:08:59;2.10;99.90
33815;DHT22;20121;51.910;8.406;2022-12-05T09:11:28;2.20;99.90
33815;DHT22;20121;51.910;8.406;2022-12-05T09:13:55;2.20;99.90
33815;DHT22;20121;51.910;8.406;2022-12-05T09:16:24;2.20;99.90
33815;DHT22;20121;51.910;8.406;2022-12-05T09:18:50;2.20;99.90
33815;DHT22;20121;51.910;8.406;2022-12-05T09:21:18;2.10;99.90
33815;DHT22;20121;51.910;8.406;2022-12-05T09:23:45;2.10;99.90
33815;DHT22;20121;51.910;8.406;2022-12-05T09:26:13;2.10;99.90
33815;DHT22;20121;51.910;8.406;2022-12-05T09:28:40;2.10;99.90
33815;DHT22;20121;51.910;8.406;2022-12-05T09:31:09;1.90;99.90
33815;DHT22;20121;51.910;8.406;2022-12-05T09:33:36;1.90;99.90
33815;DHT22;20121;51.910;8.406;2022-12-05T09:36:07;2.10;99.90
33815;DHT22;20121;51.910;8.406;2022-12-05T09:38:33;2.10;99.90
33815;DHT22;20121;51.910;8.406;2022-12-05T09:49:54;2.00;99.90
33815;DHT22;20121;51.910;8.406;2022-12-05T09:52:26;2.00;99.90
33815;DHT22;20121;51.910;8.406;2022-12-05T09:54:52;1.90;99.90
33815;DHT22;20121;51.910;8.406;2022-12-05T09:57:37;2.00;99.90
33815;DHT22;20121;51.910;8.406;2022-12-05T10:00:05;1.90;99.90
33815;DHT22;20121;51.910;8.406;2022-12-05T10:05:39;1.90;99.90
33815;DHT22;20121;51.910;8.406;2022-12-05T10:08:28;1.90;99.90
33815;DHT22;20121;51.910;8.406;2022-12-05T10:11:00;1.80;99.90
33815;DHT22;20121;51.910;8.406;2022-12-05T10:13:37;1.80;99.90
33815;DHT22;20121;51.910;8.406;2022-12-05T10:16:11;1.80;99.90
33815;DHT22;20121;51.910;8.406;2022-12-05T10:18:54;1.80;99.90
33815;DHT22;20121;51.910;8.406;2022-12-05T10:21:35;1.80;99.90
33815;DHT22;20121;51.910;8.406;2022-12-05T10:24:03;1.80;99.90
33815;DHT22;20121;51.910;8.406;2022-12-05T10:26:35;1.70;99.90
33815;DHT22;20121;51.910;8.406;2022-12-05T10:29:29;1.80;99.90
33815;DHT22;20121;51.910;8.406;2022-12-05T10:32:18;1.50;99.90
33815;DHT22;20121;51.910;8.406;2022-12-05T10:34:45;1.80;99.90
33815;DHT22;20121;51.910;8.406;2022-12-05T10:37:19;1.80;99.90
33815;DHT22;20121;51.910;8.406;2022-12-05T10:39:46;1.80;99.90
33815;DHT22;20121;51.910;8.406;2022-12-05T10:42:30;1.80;99.90
33815;DHT22;20121;51.910;8.406;2022-12-05T10:44:59;1.80;99.90
33815;DHT22;20121;51.910;8.406;2022-12-05T10:47:27;1.60;99.90
33815;DHT22;20121;51.910;8.406;2022-12-05T10:49:55;1.80;99.90
33815;DHT22;20121;51.910;8.406;2022-12-05T10:52:23;1.80;99.90
33815;DHT22;20121;51.910;8.406;2022-12-05T10:54:54;1.70;99.90
33815;DHT22;20121;51.910;8.406;2022-12-05T10:57:28;1.70;99.90
33815;DHT22;20121;51.910;8.406;2022-12-05T10:59:56;1.70;99.90
33815;DHT22;20121;51.910;8.406;2022-12-05T11:02:28;1.70;99.90
33815;DHT22;20121;51.910;8.406;2022-12-05T11:04:56;1.70;99.90
33815;DHT22;20121;51.910;8.406;2022-12-05T11:07:29;1.70;99.90
33815;DHT22;20121;51.910;8.406;2022-12-05T11:09:57;1.70;99.90
33815;DHT22;20121;51.910;8.406;2022-12-05T11:12:43;1.70;99.90
33815;DHT22;20121;51.910;8.406;2022-12-05T11:17:41;1.70;99.90
33815;DHT22;20121;51.910;8.406;2022-12-05T11:22:36;1.70;99.90
33815;DHT22;20121;51.910;8.406;2022-12-05T11:27:53;1.60;99.90
33815;DHT22;20121;51.910;8.406;2022-12-05T11:30:24;1.80;99.90
33815;DHT22;20121;51.910;8.406;2022-12-05T11:33:10;1.90;99.90
33815;DHT22;20121;51.910;8.406;2022-12-05T11:35:36;1.90;99.90
33815;DHT22;20121;51.910;8.406;2022-12-05T11:38:04;1.90;99.90
33815;DHT22;20121;51.910;8.406;2022-12-05T11:40:44;1.80;99.90
33815;DHT22;20121;51.910;8.406;2022-12-05T11:49:54;1.90;99.90
33815;DHT22;20121;51.910;8.406;2022-12-05T11:54:52;1.90;99.90
33815;DHT22;20121;51.910;8.406;2022-12-05T11:57:47;1.90;99.90
33815;DHT22;20121;51.910;8.406;2022-12-05T12:00:16;1.90;99.90
33815;DHT22;20121;51.910;8.406;2022-12-05T12:21:17;2.00;99.90
33815;DHT22;20121;51.910;8.406;2022-12-05T12:23:51;2.00;99.90
33815;DHT22;20121;51.910;8.406;2022-12-05T12:26:50;1.90;99.90
33815;DHT22;20121;51.910;8.406;2022-12-05T12:37:31;1.90;99.90
33815;DHT22;20121;51.910;8.406;2022-12-05T12:40:21;1.90;99.90
33815;DHT22;20121;51.910;8.406;2022-12-05T12:43:23;1.90;99.90
33815;DHT22;20121;51.910;8.406;2022-12-05T12:51:28;1.80;99.90
33815;DHT22;20121;51.910;8.406;2022-12-05T13:02:16;1.80;99.90
33815;DHT22;20121;51.910;8.406;2022-12-05T13:07:57;1.80;99.90
33815;DHT22;20121;51.910;8.406;2022-12-05T13:10:16;1.80;99.90
33815;DHT22;20121;51.910;8.406;2022-12-05T13:12:44;1.80;99.90
33815;DHT22;20121;51.910;8.406;2022-12-05T13:15:18;1.80;99.90
33815;DHT22;20121;51.910;8.406;2022-12-05T13:17:46;1.80;99.90
33815;DHT22;20121;51.910;8.406;2022-12-05T13:20:24;1.70;99.90
33815;DHT22;20121;51.910;8.406;2022-12-05T13:22:52;1.70;99.90
33815;DHT22;20121;51.910;8.406;2022-12-05T13:25:20;1.70;99.90
33815;DHT22;20121;51.910;8.406;2022-12-05T13:27:56;1.70;99.90
33815;DHT22;20121;51.910;8.406;2022-12-05T13:30:22;1.70;99.90
33815;DHT22;20121;51.910;8.406;2022-12-05T13:32:54;1.60;99.90
33815;DHT22;20121;51.910;8.406;2022-12-05T13:35:31;1.70;99.90
33815;DHT22;20121;51.910;8.406;2022-12-05T13:38:31;1.60;99.90
33815;DHT22;20121;51.910;8.406;2022-12-05T13:41:16;1.60;99.90
33815;DHT22;20121;51.910;8.406;2022-12-05T13:44:01;1.60;99.90
33815;DHT22;20121;51.910;8.406;2022-12-05T13:46:39;1.60;99.90
33815;DHT22;20121;51.910;8.406;2022-12-05T13:49:29;1.60;99.90
33815;DHT22;20121;51.910;8.406;2022-12-05T13:52:07;1.60;99.90
33815;DHT22;20121;51.910;8.406;2022-12-05T13:54:34;1.60;99.90
33815;DHT22;20121;51.910;8.406;2022-12-05T13:57:13;1.60;99.90
33815;DHT22;20121;51.910;8.406;2022-12-05T14:00:20;1.60;99.90
33815;DHT22;20121;51.910;8.406;2022-12-05T14:02:52;1.60;99.90
33815;DHT22;20121;51.910;8.406;2022-12-05T14:07:50;1.60;99.90
33815;DHT22;20121;51.910;8.406;2022-12-05T14:12:57;1.60;99.90
33815;DHT22;20121;51.910;8.406;2022-12-05T14:15:24;1.60;99.90
33815;DHT22;20121;51.910;8.406;2022-12-05T14:17:55;1.50;99.90
33815;DHT22;20121;51.910;8.406;2022-12-05T14:25:26;1.50;99.90
33815;DHT22;20121;51.910;8.406;2022-12-05T14:30:58;1.50;99.90
33815;DHT22;20121;51.910;8.406;2022-12-05T14:33:27;1.50;99.90
33815;DHT22;20121;51.910;8.406;2022-12-05T14:35:53;1.50;99.90
33815;DHT22;20121;51.910;8.406;2022-12-05T14:38:36;1.50;99.90
33815;DHT22;20121;51.910;8.406;2022-12-05T14:43:38;1.50;99.90
33815;DHT22;20121;51.910;8.406;2022-12-05T14:46:18;1.40;99.90
33815;DHT22;20121;51.910;8.406;2022-12-05T14:48:46;1.50;99.90
33815;DHT22;20121;51.910;8.406;2022-12-05T14:51:43;1.40;99.90
33815;DHT22;20121;51.910;8.406;2022-12-05T14:54:14;1.40;99.90
33815;DHT22;20121;51.910;8.406;2022-12-05T14:56:43;1.40;99.90
33815;DHT22;20121;51.910;8.406;2022-12-05T14:59:16;1.40;99.90
33815;DHT22;20121;51.910;8.406;2022-12-05T15:01:50;1.20;99.90
33815;DHT22;20121;51.910;8.406;2022-12-05T15:06:52;1.40;99.90
33815;DHT22;20121;51.910;8.406;2022-12-05T15:12:16;1.40;99.90
33815;DHT22;20121;51.910;8.406;2022-12-05T15:14:57;1.50;99.90
33815;DHT22;20121;51.910;8.406;2022-12-05T15:17:33;1.50;99.90
33815;DHT22;20121;51.910;8.406;2022-12-05T15:20:28;1.40;99.90
33815;DHT22;20121;51.910;8.406;2022-12-05T15:22:50;1.40;99.90
33815;DHT22;20121;51.910;8.406;2022-12-05T15:25:22;1.40;99.90
33815;DHT22;20121;51.910;8.406;2022-12-05T15:27:53;1.30;99.90
33815;DHT22;20121;51.910;8.406;2022-12-05T15:30:19;1.30;99.90
33815;DHT22;20121;51.910;8.406;2022-12-05T15:32:45;1.30;99.90
33815;DHT22;20121;51.910;8.406;2022-12-05T15:35:11;1.30;99.90
33815;DHT22;20121;51.910;8.406;2022-12-05T15:37:52;1.20;99.90
33815;DHT22;20121;51.910;8.406;2022-12-05T15:40:21;1.20;99.90
33815;DHT22;20121;51.910;8.406;2022-12-05T15:42:55;1.20;99.90
33815;DHT22;20121;51.910;8.406;2022-12-05T15:45:29;1.20;99.90
33815;DHT22;20121;51.910;8.406;2022-12-05T15:53:21;1.20;99.90
33815;DHT22;20121;51.910;8.406;2022-12-05T15:55:53;1.20;99.90
33815;DHT22;20121;51.910;8.406;2022-12-05T15:58:28;1.20;99.90
33815;DHT22;20121;51.910;8.406;2022-12-05T16:03:54;1.20;99.90
33815;DHT22;20121;51.910;8.406;2022-12-05T16:06:47;1.20;99.90
33815;DHT22;20121;51.910;8.406;2022-12-05T16:09:27;1.20;99.90
33815;DHT22;20121;51.910;8.406;2022-12-05T16:11:58;1.20;99.90
33815;DHT22;20121;51.910;8.406;2022-12-05T16:14:28;1.20;99.90
33815;DHT22;20121;51.910;8.406;2022-12-05T16:16:58;1.20;99.90
33815;DHT22;20121;51.910;8.406;2022-12-05T16:19:29;1.20;99.90
33815;DHT22;20121;51.910;8.406;2022-12-05T16:22:07;1.20;99.90
33815;DHT22;20121;51.910;8.406;2022-12-05T16:24:40;1.20;99.90
33815;DHT22;20121;51.910;8.406;2022-12-05T16:29:42;1.20;99.90
33815;DHT22;20121;51.910;8.406;2022-12-05T16:32:23;1.20;99.90
33815;DHT22;20121;51.910;8.406;2022-12-05T16:34:49;1.20;99.90
33815;DHT22;20121;51.910;8.406;2022-12-05T16:37:26;1.20;99.90
33815;DHT22;20121;51.910;8.406;2022-12-05T16:39:53;1.10;99.90
33815;DHT22;20121;51.910;8.406;2022-12-05T16:42:24;1.20;99.90
33815;DHT22;20121;51.910;8.406;2022-12-05T16:44:54;1.10;99.90
33815;DHT22;20121;51.910;8.406;2022-12-05T16:48:02;1.20;99.90
33815;DHT22;20121;51.910;8.406;2022-12-05T16:50:32;1.20;99.90
33815;DHT22;20121;51.910;8.406;2022-12-05T16:55:37;1.20;99.90
33815;DHT22;20121;51.910;8.406;2022-12-05T16:58:04;1.20;99.90
33815;DHT22;20121;51.910;8.406;2022-12-05T17:00:30;1.20;99.90
33815;DHT22;20121;51.910;8.406;2022-12-05T17:02:57;1.20;99.90
33815;DHT22;20121;51.910;8.406;2022-12-05T17:05:23;1.10;99.90
33815;DHT22;20121;51.910;8.406;2022-12-05T17:07:49;1.10;99.90
33815;DHT22;20121;51.910;8.406;2022-12-05T17:10:16;1.20;99.90
33815;DHT22;20121;51.910;8.406;2022-12-05T17:12:42;1.20;99.90
33815;DHT22;20121;51.910;8.406;2022-12-05T17:15:16;1.20;99.90
33815;DHT22;20121;51.910;8.406;2022-12-05T17:17:43;1.20;99.90
33815;DHT22;20121;51.910;8.406;2022-12-05T17:20:09;1.10;99.90
33815;DHT22;20121;51.910;8.406;2022-12-05T17:22:35;1.10;99.90
33815;DHT22;20121;51.910;8.406;2022-12-05T17:25:00;1.10;99.90
33815;DHT22;20121;51.910;8.406;2022-12-05T17:27:26;1.20;99.90
33815;DHT22;20121;51.910;8.406;2022-12-05T17:29:51;1.20;99.90
33815;DHT22;20121;51.910;8.406;2022-12-05T17:32:17;1.20;99.90
33815;DHT22;20121;51.910;8.406;2022-12-05T17:34:43;1.20;99.90
33815;DHT22;20121;51.910;8.406;2022-12-05T17:37:08;0.90;99.90
33815;DHT22;20121;51.910;8.406;2022-12-05T17:39:34;1.20;99.90
33815;DHT22;20121;51.910;8.406;2022-12-05T17:41:59;1.20;99.90
33815;DHT22;20121;51.910;8.406;2022-12-05T17:44:25;1.20;99.90
33815;DHT22;20121;51.910;8.406;2022-12-05T17:46:51;1.20;99.90
33815;DHT22;20121;51.910;8.406;2022-12-05T17:49:16;1.20;99.90
33815;DHT22;20121;51.910;8.406;2022-12-05T17:51:42;0.90;99.90
33815;DHT22;20121;51.910;8.406;2022-12-05T17:54:08;1.20;99.90
33815;DHT22;20121;51.910;8.406;2022-12-05T17:56:34;1.20;99.90
33815;DHT22;20121;51.910;8.406;2022-12-05T18:01:26;1.20;99.90
33815;DHT22;20121;51.910;8.406;2022-12-05T18:03:52;1.10;99.90
33815;DHT22;20121;51.910;8.406;2022-12-05T18:06:17;1.20;99.90
33815;DHT22;20121;51.910;8.406;2022-12-05T18:08:43;1.20;99.90
33815;DHT22;20121;51.910;8.406;2022-12-05T18:11:10;1.20;99.90
33815;DHT22;20121;51.910;8.406;2022-12-05T18:13:36;1.20;99.90
33815;DHT22;20121;51.910;8.406;2022-12-05T18:16:02;1.20;99.90
33815;DHT22;20121;51.910;8.406;2022-12-05T18:18:28;1.20;99.90
33815;DHT22;20121;51.910;8.406;2022-12-05T18:21:05;1.20;99.90
33815;DHT22;20121;51.910;8.406;2022-12-05T18:23:32;1.20;99.90
33815;DHT22;20121;51.910;8.406;2022-12-05T18:25:59;1.20;99.90
33815;DHT22;20121;51.910;8.406;2022-12-05T18:28:24;1.20;99.90
33815;DHT22;20121;51.910;8.406;2022-12-05T18:30:50;1.20;99.90
33815;DHT22;20121;51.910;8.406;2022-12-05T18:33:26;1.20;99.90